createdAt,value
2023-04-28T00:01:40.923Z,99497.75
2023-04-28T00:04:08.434Z,99493.72
2023-04-28T00:06:35.479Z,99490.57
2023-04-28T00:09:03.052Z,99487.08
2023-04-28T00:11:29.715Z,99488.46
2023-04-28T00:13:56.367Z,99490.75
2023-04-28T00:16:23.632Z,99492.00
2023-04-28T00:18:50.719Z,99497.96
2023-04-28T00:21:17.400Z,99492.02
2023-04-28T00:23:44.134Z,99490.94
2023-04-28T00:26:11.701Z,99485.32
2023-04-28T00:28:39.119Z,99487.20
2023-04-28T00:31:15.126Z,99487.52
2023-04-28T00:33:42.940Z,99489.07
2023-04-28T00:36:10.428Z,99486.94
2023-04-28T00:38:37.578Z,99487.11
2023-04-28T00:41:04.406Z,99483.90
2023-04-28T00:43:30.966Z,99483.27
2023-04-28T00:45:57.646Z,99482.37
2023-04-28T00:48:24.399Z,99479.91
2023-04-28T00:50:51.513Z,99475.39
2023-04-28T00:53:18.094Z,99475.40
2023-04-28T00:55:46.404Z,99472.60
2023-04-28T00:58:13.134Z,99470.15
2023-04-28T01:00:39.913Z,99464.52
2023-04-28T01:03:07.381Z,99465.54
2023-04-28T01:05:36.058Z,99462.91
2023-04-28T01:08:02.710Z,99458.55
2023-04-28T01:10:29.245Z,99458.45
2023-04-28T01:12:56.528Z,99456.41
2023-04-28T01:15:23.528Z,99448.84
2023-04-28T01:17:53.014Z,99451.26
2023-04-28T01:20:20.105Z,99451.16
2023-04-28T01:22:47.370Z,99453.75
2023-04-28T01:25:14.301Z,99458.00
2023-04-28T01:27:40.833Z,99454.14
2023-04-28T01:30:08.628Z,99453.20
2023-04-28T01:32:35.534Z,99447.48
2023-04-28T01:35:03.057Z,99449.89
2023-04-28T01:37:30.028Z,99445.84
2023-04-28T01:39:56.695Z,99442.98
2023-04-28T01:42:25.037Z,99440.85
2023-04-28T01:44:52.567Z,99440.84
2023-04-28T01:47:19.831Z,99440.62
2023-04-28T01:49:47.724Z,99440.21
2023-04-28T01:52:14.368Z,99436.01
2023-04-28T01:54:41.117Z,99435.99
2023-04-28T01:57:07.727Z,99430.73
2023-04-28T01:59:34.564Z,99430.09
2023-04-28T02:02:01.691Z,99429.76
2023-04-28T02:04:28.554Z,99426.91
2023-04-28T02:06:55.131Z,99431.60
2023-04-28T02:09:21.722Z,99431.46
2023-04-28T02:11:50.316Z,99429.73
2023-04-28T02:14:17.125Z,99430.05
2023-04-28T02:16:43.970Z,99428.76
2023-04-28T02:19:11.633Z,99432.55
2023-04-28T02:21:38.237Z,99430.14
2023-04-28T02:24:07.553Z,99427.35
2023-04-28T02:26:34.765Z,99428.48
2023-04-28T02:29:03.638Z,99426.81
2023-04-28T02:31:32.438Z,99425.30
2023-04-28T02:33:59.207Z,99423.07
2023-04-28T02:36:27.148Z,99419.79
2023-04-28T02:38:53.743Z,99419.46
2023-04-28T02:41:20.818Z,99418.92
2023-04-28T02:43:47.542Z,99419.09
2023-04-28T02:46:14.518Z,99416.83
2023-04-28T02:48:42.009Z,99415.27
2023-04-28T02:51:10.419Z,99416.65
2023-04-28T02:53:37.460Z,99412.70
2023-04-28T02:56:04.605Z,99408.88
2023-04-28T02:58:32.295Z,99405.36
2023-04-28T03:00:58.906Z,99402.92
2023-04-28T03:03:25.611Z,99403.80
2023-04-28T03:05:52.809Z,99406.82
2023-04-28T03:08:20.300Z,99407.21
2023-04-28T03:10:46.852Z,99409.55
2023-04-28T03:13:13.455Z,99406.46
2023-04-28T03:15:42.256Z,99404.08
2023-04-28T03:18:09.236Z,99401.02
2023-04-28T03:20:35.908Z,99401.44
2023-04-28T03:23:03.091Z,99399.48
2023-04-28T03:25:30.233Z,99398.21
2023-04-28T03:27:57.281Z,99398.09
2023-04-28T03:30:23.856Z,99397.98
2023-04-28T03:32:50.507Z,99398.42
2023-04-28T03:35:17.257Z,99398.44
2023-04-28T03:37:44.033Z,99400.77
2023-04-28T03:40:11.232Z,99404.14
2023-04-28T03:42:58.726Z,99398.11
2023-04-28T03:45:33.249Z,99399.59
2023-04-28T03:48:00.299Z,99398.55
2023-04-28T03:50:26.983Z,99398.02
2023-04-28T03:52:56.342Z,99395.53
2023-04-28T03:55:23.514Z,99392.48
2023-04-28T03:57:51.711Z,99397.13
2023-04-28T04:00:18.755Z,99393.55
2023-04-28T04:02:46.353Z,99391.28
2023-04-28T04:05:13.461Z,99390.38
2023-04-28T04:07:41.018Z,99389.23
2023-04-28T04:10:08.339Z,99385.64
2023-04-28T04:12:36.056Z,99384.62
2023-04-28T04:15:03.403Z,99389.05
2023-04-28T04:17:30.969Z,99392.16
2023-04-28T04:19:58.136Z,99385.06
2023-04-28T04:22:26.779Z,99381.38
2023-04-28T04:24:53.317Z,99380.41
2023-04-28T04:27:20.128Z,99379.84
2023-04-28T04:29:46.780Z,99374.80
2023-04-28T04:32:14.405Z,99373.41
2023-04-28T04:34:41.737Z,99370.55
2023-04-28T04:37:09.723Z,99372.88
2023-04-28T04:39:40.871Z,99374.63
2023-04-28T04:42:23.461Z,99375.05
2023-04-28T04:45:06.195Z,99374.02
2023-04-28T04:47:32.907Z,99376.70
2023-04-28T04:50:00.004Z,99369.77
2023-04-28T04:52:26.745Z,99365.49
2023-04-28T04:54:55.924Z,99361.68
2023-04-28T04:57:23.818Z,99363.91
2023-04-28T05:00:09.236Z,99364.34
2023-04-28T05:02:36.703Z,99358.55
2023-04-28T05:05:19.835Z,99360.80
2023-04-28T05:07:54.235Z,99359.04
2023-04-28T05:10:21.218Z,99359.30
2023-04-28T05:12:49.142Z,99361.54
2023-04-28T05:15:16.590Z,99357.98
2023-04-28T05:17:49.429Z,99355.45
2023-04-28T05:20:16.193Z,99351.98
2023-04-28T05:22:42.777Z,99349.42
2023-04-28T05:25:09.468Z,99350.48
2023-04-28T05:27:38.834Z,99349.46
2023-04-28T05:30:07.537Z,99349.67
2023-04-28T05:32:35.391Z,99350.70
2023-04-28T05:35:02.905Z,99343.59
2023-04-28T05:37:29.543Z,99340.55
2023-04-28T05:39:56.504Z,99341.50
2023-04-28T05:42:23.078Z,99339.70
2023-04-28T05:44:49.794Z,99340.54
2023-04-28T05:47:16.364Z,99333.73
2023-04-28T05:49:42.974Z,99329.18
2023-04-28T05:52:09.575Z,99326.45
2023-04-28T05:54:36.303Z,99324.41
2023-04-28T05:57:03.035Z,99324.10
2023-04-28T05:59:30.963Z,99322.24
2023-04-28T06:01:57.819Z,99324.79
2023-04-28T06:04:25.581Z,99320.80
2023-04-28T06:06:52.883Z,99318.37
2023-04-28T06:09:19.702Z,99313.97
2023-04-28T06:11:46.770Z,99313.31
2023-04-28T06:14:13.398Z,99308.52
2023-04-28T06:16:42.240Z,99302.22
2023-04-28T06:19:09.283Z,99296.85
2023-04-28T06:21:36.401Z,99297.30
2023-04-28T06:24:03.325Z,99292.30
2023-04-28T06:26:30.483Z,99289.84
2023-04-28T06:28:57.063Z,99292.15
2023-04-28T06:31:23.854Z,99292.15
2023-04-28T06:33:52.687Z,99287.23
2023-04-28T06:36:19.312Z,99282.96
2023-04-28T06:38:46.062Z,99282.98
2023-04-28T06:41:12.850Z,99278.16
2023-04-28T06:43:41.207Z,99277.43
2023-04-28T06:46:11.147Z,99279.45
2023-04-28T06:48:38.237Z,99275.93
2023-04-28T06:51:05.532Z,99271.75
2023-04-28T06:53:33.833Z,99268.54
2023-04-28T06:56:01.746Z,99263.55
2023-04-28T06:58:28.298Z,99264.72
2023-04-28T07:00:55.126Z,99260.88
2023-04-28T07:03:21.823Z,99257.10
2023-04-28T07:05:48.508Z,99253.11
2023-04-28T07:08:16.978Z,99251.04
2023-04-28T07:10:43.534Z,99247.25
2023-04-28T07:13:10.173Z,99241.00
2023-04-28T07:15:37.444Z,99237.81
2023-04-28T07:18:04.183Z,99235.52
2023-04-28T07:20:30.798Z,99235.20
2023-04-28T07:22:57.377Z,99232.23
2023-04-28T07:25:24.011Z,99231.77
2023-04-28T07:27:50.841Z,99231.73
2023-04-28T07:30:27.270Z,99228.46
2023-04-28T07:32:55.557Z,99230.42
2023-04-28T07:35:22.410Z,99223.75
2023-04-28T07:37:49.121Z,99223.62
2023-04-28T07:40:16.884Z,99219.99
2023-04-28T07:42:43.492Z,99218.80
2023-04-28T07:45:10.760Z,99220.77
2023-04-28T07:47:37.982Z,99219.50
2023-04-28T07:50:06.101Z,99213.54
2023-04-28T07:52:33.857Z,99210.67
2023-04-28T07:55:01.792Z,99208.81
2023-04-28T07:57:30.873Z,99204.30
2023-04-28T07:59:57.464Z,99205.86
2023-04-28T08:02:25.534Z,99204.05
2023-04-28T08:04:52.556Z,99203.88
2023-04-28T08:07:19.897Z,99201.95
2023-04-28T08:09:47.590Z,99202.59
2023-04-28T08:12:15.104Z,99199.96
2023-04-28T08:14:42.089Z,99200.77
2023-04-28T08:17:08.762Z,99197.27
2023-04-28T08:19:35.376Z,99195.17
2023-04-28T08:22:05.283Z,99193.90
2023-04-28T08:24:35.773Z,99190.20
2023-04-28T08:27:03.146Z,99187.29
2023-04-28T08:29:31.503Z,99188.12
2023-04-28T08:31:58.643Z,99185.05
2023-04-28T08:34:25.160Z,99181.89
2023-04-28T08:36:52.505Z,99181.02
2023-04-28T08:39:23.020Z,99182.13
2023-04-28T08:41:50.062Z,99181.40
2023-04-28T08:44:16.996Z,99177.13
2023-04-28T08:46:45.346Z,99169.69
2023-04-28T08:49:18.188Z,99167.23
2023-04-28T08:52:09.158Z,99161.63
2023-04-28T08:54:37.438Z,99161.66
2023-04-28T08:57:05.033Z,99158.14
2023-04-28T08:59:32.287Z,99155.48
2023-04-28T09:01:59.849Z,99153.77
2023-04-28T09:04:26.821Z,99155.65
2023-04-28T09:06:53.716Z,99150.80
2023-04-28T09:09:21.047Z,99142.55
2023-04-28T09:11:58.912Z,99144.00
2023-04-28T09:14:27.567Z,99143.91
2023-04-28T09:16:54.798Z,99143.22
2023-04-28T09:19:21.620Z,99139.89
2023-04-28T09:21:53.616Z,99132.33
2023-04-28T09:24:33.448Z,99135.61
2023-04-28T09:27:04.341Z,99132.91
2023-04-28T09:29:31.719Z,99131.98
2023-04-28T09:32:17.898Z,99130.15
2023-04-28T09:34:51.157Z,99128.10
2023-04-28T09:37:22.948Z,99118.55
2023-04-28T09:39:51.165Z,99118.96
2023-04-28T09:42:41.460Z,99114.02
2023-04-28T09:45:13.002Z,99108.00
2023-04-28T09:47:41.448Z,99108.81
2023-04-28T09:50:12.002Z,99103.78
2023-04-28T09:52:39.217Z,99097.25
2023-04-28T09:55:10.426Z,99096.29
2023-04-28T09:57:38.393Z,99085.30
2023-04-28T10:00:08.474Z,99086.27
2023-04-28T10:05:08.730Z,99081.66
2023-04-28T10:07:36.227Z,99074.63
2023-04-28T10:10:03.651Z,99069.98
2023-04-28T10:12:31.944Z,99063.25
2023-04-28T10:14:59.298Z,99064.81
2023-04-28T10:17:27.565Z,99066.34
2023-04-28T10:19:54.732Z,99063.88
2023-04-28T10:22:52.900Z,99060.84
2023-04-28T10:25:26.893Z,99055.13
2023-04-28T10:27:54.014Z,99053.01
2023-04-28T10:30:28.259Z,99052.11
2023-04-28T10:33:08.730Z,99048.73
2023-04-28T10:35:39.764Z,99047.50
2023-04-28T10:38:13.463Z,99047.56
2023-04-28T10:40:42.330Z,99037.74
2023-04-28T10:43:12.516Z,99034.68
2023-04-28T10:45:57.457Z,99037.08
2023-04-28T10:48:34.303Z,99033.31
2023-04-28T10:51:03.946Z,99033.64
2023-04-28T10:53:46.190Z,99026.17
2023-04-28T10:56:26.501Z,99025.90
2023-04-28T10:59:24.444Z,99026.40
2023-04-28T11:01:51.342Z,99017.55
2023-04-28T11:04:18.044Z,99018.63
2023-04-28T11:06:46.488Z,99015.89
2023-04-28T11:09:18.951Z,99010.85
2023-04-28T11:12:00.564Z,99009.10
2023-04-28T11:14:35.217Z,99007.98
2023-04-28T11:17:06.736Z,99006.85
2023-04-28T11:19:36.037Z,99007.31
2023-04-28T11:22:13.441Z,99003.59
2023-04-28T11:24:40.284Z,99003.20
2023-04-28T11:27:07.853Z,99003.43
2023-04-28T11:29:39.263Z,99003.59
2023-04-28T11:32:08.632Z,99001.83
2023-04-28T11:34:36.724Z,98995.23
2023-04-28T11:37:05.204Z,98992.98
2023-04-28T11:39:34.768Z,98988.23
2023-04-28T11:42:08.625Z,98989.88
2023-04-28T11:44:35.357Z,98994.70
2023-04-28T11:47:05.093Z,98993.16
2023-04-28T11:49:42.288Z,98990.76
2023-04-28T11:52:09.747Z,98984.89
2023-04-28T11:54:37.714Z,98980.02
2023-04-28T11:57:05.101Z,98981.39
2023-04-28T11:59:35.394Z,98979.93
2023-04-28T12:02:05.033Z,98977.35
2023-04-28T12:04:36.064Z,98976.67
2023-04-28T12:07:16.702Z,98976.34
2023-04-28T12:09:46.218Z,98974.57
2023-04-28T12:15:07.536Z,98961.89
2023-04-28T12:17:37.136Z,98959.88
2023-04-28T12:20:08.895Z,98959.86
2023-04-28T12:22:47.518Z,98952.08
2023-04-28T12:25:16.597Z,98949.55
2023-04-28T12:28:00.969Z,98944.41
2023-04-28T12:30:29.556Z,98945.47
2023-04-28T12:32:56.909Z,98939.98
2023-04-28T12:35:28.162Z,98941.37
2023-04-28T12:37:56.237Z,98939.59
2023-04-28T12:40:23.648Z,98939.78
2023-04-28T12:42:50.503Z,98937.63
2023-04-28T12:45:17.161Z,98936.48
2023-04-28T12:47:43.726Z,98929.34
2023-04-28T12:50:10.365Z,98930.52
2023-04-28T12:52:36.986Z,98929.42
2023-04-28T12:55:04.365Z,98932.48
2023-04-28T12:57:31.010Z,98928.44
2023-04-28T12:59:57.634Z,98925.77
2023-04-28T13:02:24.438Z,98926.74
2023-04-28T13:04:52.658Z,98925.83
2023-04-28T13:07:19.385Z,98930.45
2023-04-28T13:09:46.925Z,98929.30
2023-04-28T13:12:14.016Z,98934.23
2023-04-28T13:14:40.934Z,98932.94
2023-04-28T13:17:08.515Z,98928.10
2023-04-28T13:19:35.130Z,98920.87
2023-04-28T13:22:04.547Z,98920.80
2023-04-28T13:24:32.791Z,98918.42
2023-04-28T13:26:59.727Z,98913.98
2023-04-28T13:29:26.418Z,98916.48
2023-04-28T13:31:53.080Z,98915.66
2023-04-28T13:34:19.799Z,98910.43
2023-04-28T13:36:50.112Z,98908.34
2023-04-28T13:39:19.457Z,98904.14
2023-04-28T13:41:46.137Z,98901.84
2023-04-28T13:44:13.392Z,98897.22
2023-04-28T13:46:39.988Z,98892.91
2023-04-28T13:49:09.995Z,98893.73
2023-04-28T13:51:36.637Z,98890.75
2023-04-28T13:54:03.820Z,98887.77
2023-04-28T13:56:34.090Z,98884.56
2023-04-28T13:59:01.025Z,98881.51
2023-04-28T14:01:28.265Z,98882.66
2023-04-28T14:03:55.143Z,98882.05
2023-04-28T14:06:22.412Z,98883.28
2023-04-28T14:08:49.044Z,98881.07
2023-04-28T14:11:15.678Z,98879.88
2023-04-28T14:13:42.639Z,98877.25
2023-04-28T14:16:09.265Z,98872.59
2023-04-28T14:18:35.948Z,98870.78
2023-04-28T14:21:07.259Z,98866.10
2023-04-28T14:23:34.873Z,98865.83
2023-04-28T14:26:01.502Z,98863.69
2023-04-28T14:28:28.420Z,98862.06
2023-04-28T14:30:55.099Z,98859.64
2023-04-28T14:33:21.829Z,98858.14
2023-04-28T14:35:48.366Z,98856.18
2023-04-28T14:38:15.047Z,98851.20
2023-04-28T14:40:42.518Z,98848.91
2023-04-28T14:43:09.119Z,98846.38
2023-04-28T14:45:37.496Z,98842.54
2023-04-28T14:48:06.039Z,98843.63
2023-04-28T14:50:32.665Z,98841.12
2023-04-28T14:53:04.664Z,98843.23
2023-04-28T14:55:31.321Z,98842.04
2023-04-28T15:04:10.062Z,98838.73
2023-04-28T15:06:38.191Z,98838.08
2023-04-28T15:09:06.324Z,98833.98
2023-04-28T15:11:34.275Z,98831.95
2023-04-28T15:14:02.256Z,98829.95
2023-04-28T15:16:30.268Z,98829.90
2023-04-28T15:18:58.295Z,98828.81
2023-04-28T15:21:26.324Z,98825.63
2023-04-28T15:23:54.425Z,98823.09
2023-04-28T15:26:23.786Z,98824.84
2023-04-28T15:28:52.230Z,98824.45
2023-04-28T15:31:21.438Z,98823.31
2023-04-28T15:33:50.322Z,98825.75
2023-04-28T15:36:21.366Z,98825.73
2023-04-28T15:38:50.182Z,98822.64
2023-04-28T15:41:18.544Z,98820.60
2023-04-28T15:43:46.619Z,98820.63
2023-04-28T15:46:17.667Z,98817.23
2023-04-28T15:48:45.770Z,98817.60
2023-04-28T15:51:13.733Z,98821.14
2023-04-28T15:53:41.772Z,98818.02
2023-04-28T15:56:09.808Z,98819.06
2023-04-28T15:58:37.821Z,98816.87
2023-04-28T16:01:05.828Z,98812.91
2023-04-28T16:03:34.019Z,98812.88
2023-04-28T16:06:03.591Z,98813.64
2023-04-28T16:08:31.586Z,98810.25
2023-04-28T16:10:59.629Z,98803.87
2023-04-28T16:13:28.346Z,98801.41
2023-04-28T16:15:56.335Z,98805.16
2023-04-28T16:18:24.377Z,98802.50
2023-04-28T16:20:53.852Z,98804.63
2023-04-28T16:23:22.394Z,98803.82
2023-04-28T16:25:51.014Z,98801.10
2023-04-28T16:28:19.029Z,98800.40
2023-04-28T16:30:47.632Z,98797.56
2023-04-28T16:33:15.623Z,98798.06
2023-04-28T16:35:43.646Z,98798.75
2023-04-28T16:38:12.362Z,98793.47
2023-04-28T16:40:40.877Z,98792.58
2023-04-28T16:43:08.896Z,98786.65
2023-04-28T16:45:36.909Z,98794.18
2023-04-28T16:48:05.104Z,98795.42
2023-04-28T16:50:33.241Z,98793.21
2023-04-28T16:53:01.302Z,98794.62
2023-04-28T16:55:30.191Z,98789.77
2023-04-28T16:57:58.158Z,98790.31
2023-04-28T17:00:26.127Z,98788.63
2023-04-28T17:02:54.341Z,98786.70
2023-04-28T17:05:22.614Z,98789.77
2023-04-28T17:07:50.792Z,98794.66
2023-04-28T17:10:18.844Z,98791.46
2023-04-28T17:12:47.193Z,98791.63
2023-04-28T17:15:17.374Z,98789.32
2023-04-28T17:17:50.032Z,98790.03
2023-04-28T17:20:20.246Z,98788.15
2023-04-28T17:22:50.451Z,98790.36
2023-04-28T17:25:19.020Z,98793.50
2023-04-28T17:27:46.955Z,98792.15
2023-04-28T17:30:15.258Z,98794.11
2023-04-28T17:32:43.588Z,98795.44
2023-04-28T17:35:12.066Z,98790.75
2023-04-28T17:37:39.963Z,98792.84
2023-04-28T17:40:08.680Z,98789.39
2023-04-28T17:42:36.757Z,98789.55
2023-04-28T17:45:07.430Z,98789.48
2023-04-28T17:47:36.519Z,98784.08
2023-04-28T17:50:06.612Z,98784.70
2023-04-28T17:52:34.990Z,98785.51
2023-04-28T17:55:03.386Z,98784.47
2023-04-28T17:57:32.280Z,98780.05
2023-04-28T18:00:00.270Z,98784.59
2023-04-28T18:02:28.342Z,98787.07
2023-04-28T18:04:56.534Z,98789.02
2023-04-28T18:07:25.092Z,98794.70
2023-04-28T18:09:53.300Z,98794.22
2023-04-28T18:12:21.616Z,98791.55
2023-04-28T18:14:50.563Z,98793.41
2023-04-28T18:17:18.547Z,98790.53
2023-04-28T18:19:51.474Z,98786.95
2023-04-28T18:22:19.560Z,98786.13
2023-04-28T18:24:48.745Z,98787.83
2023-04-28T18:27:16.887Z,98793.27
2023-04-28T18:29:45.087Z,98794.63
2023-04-28T18:32:14.736Z,98797.33
2023-04-28T18:34:43.735Z,98795.48
2023-04-28T18:37:11.760Z,98792.42
2023-04-28T18:39:39.828Z,98789.14
2023-04-28T18:42:07.915Z,98792.06
2023-04-28T18:44:36.980Z,98792.02
2023-04-28T18:47:05.061Z,98791.36
2023-04-28T18:49:33.441Z,98792.34
2023-04-28T18:52:03.691Z,98794.67
2023-04-28T18:54:32.951Z,98793.76
2023-04-28T18:57:00.998Z,98795.79
2023-04-28T18:59:29.510Z,98796.30
2023-04-28T19:01:58.380Z,98791.56
2023-04-28T19:04:26.704Z,98791.46
2023-04-28T19:06:55.233Z,98790.48
2023-04-28T19:09:23.327Z,98792.77
2023-04-28T19:11:51.441Z,98793.24
2023-04-28T19:14:19.428Z,98796.27
2023-04-28T19:16:47.472Z,98796.61
2023-04-28T19:19:15.712Z,98798.16
2023-04-28T19:21:44.685Z,98796.55
2023-04-28T19:24:12.957Z,98793.59
2023-04-28T19:26:40.870Z,98793.13
2023-04-28T19:29:09.182Z,98795.10
2023-04-28T19:31:37.331Z,98798.16
2023-04-28T19:34:05.638Z,98791.44
2023-04-28T19:36:33.565Z,98787.44
2023-04-28T19:39:01.594Z,98784.02
2023-04-28T19:41:29.535Z,98782.11
2023-04-28T19:43:57.496Z,98786.56
2023-04-28T19:46:25.500Z,98787.36
2023-04-28T19:48:53.664Z,98785.64
2023-04-28T19:51:21.631Z,98783.83
2023-04-28T19:53:51.067Z,98782.60
2023-04-28T19:56:20.557Z,98786.25
2023-04-28T19:58:48.835Z,98783.64
2023-04-28T20:01:16.797Z,98785.08
2023-04-28T20:03:45.025Z,98789.35
2023-04-28T20:06:17.623Z,98789.52
2023-04-28T20:08:45.917Z,98789.03
2023-04-28T20:11:14.305Z,98788.39
2023-04-28T20:13:42.365Z,98787.61
2023-04-28T20:16:10.476Z,98789.48
2023-04-28T20:18:38.490Z,98784.65
2023-04-28T20:21:06.798Z,98785.95
2023-04-28T20:23:34.708Z,98788.76
2023-04-28T20:26:02.978Z,98788.60
2023-04-28T20:28:31.094Z,98786.73
2023-04-28T20:30:59.068Z,98785.13
2023-04-28T20:33:27.162Z,98782.11
2023-04-28T20:35:55.122Z,98782.98
2023-04-28T20:38:23.117Z,98788.14
2023-04-28T20:40:51.057Z,98787.41
2023-04-28T20:43:18.988Z,98784.50
2023-04-28T20:45:47.497Z,98783.70
2023-04-28T20:48:15.423Z,98780.29
2023-04-28T20:50:45.160Z,98779.21
2023-04-28T20:53:13.112Z,98776.02
2023-04-28T20:55:41.044Z,98773.57
2023-04-28T20:58:09.616Z,98770.05
2023-04-28T21:00:40.458Z,98770.90
2023-04-28T21:03:15.089Z,98767.99
2023-04-28T21:05:44.882Z,98767.06
2023-04-28T21:08:13.280Z,98766.25
2023-04-28T21:10:41.273Z,98765.34
2023-04-28T21:13:09.841Z,98766.91
2023-04-28T21:15:38.802Z,98763.81
2023-04-28T21:18:07.197Z,98758.96
2023-04-28T21:20:35.888Z,98759.71
2023-04-28T21:23:04.389Z,98758.96
2023-04-28T21:25:32.314Z,98757.88
2023-04-28T21:28:01.885Z,98758.64
2023-04-28T21:30:30.193Z,98761.73
2023-04-28T21:32:58.210Z,98758.34
2023-04-28T21:35:26.376Z,98754.70
2023-04-28T21:37:54.374Z,98751.85
2023-04-28T21:40:22.713Z,98752.16
2023-04-28T21:42:51.140Z,98747.36
2023-04-28T21:45:19.019Z,98745.13
2023-04-28T21:47:47.360Z,98740.70
2023-04-28T21:50:15.494Z,98740.75
2023-04-28T21:52:43.436Z,98742.13
2023-04-28T21:55:11.434Z,98741.58
2023-04-28T21:57:39.356Z,98741.42
2023-04-28T22:00:10.799Z,98737.31
2023-04-28T22:02:41.746Z,98742.10
2023-04-28T22:05:10.656Z,98739.93
2023-04-28T22:07:38.856Z,98737.33
2023-04-28T22:10:08.018Z,98738.24
2023-04-28T22:12:36.066Z,98741.88
2023-04-28T22:15:04.934Z,98740.92
2023-04-28T22:17:32.942Z,98740.40
2023-04-28T22:20:00.865Z,98736.41
2023-04-28T22:22:30.196Z,98734.71
2023-04-28T22:24:58.425Z,98739.15
2023-04-28T22:27:27.104Z,98732.44
2023-04-28T22:29:55.016Z,98725.58
2023-04-28T22:32:23.280Z,98729.34
2023-04-28T22:34:51.319Z,98731.39
2023-04-28T22:37:19.233Z,98728.24
2023-04-28T22:39:47.157Z,98728.45
2023-04-28T22:42:15.107Z,98725.55
2023-04-28T22:44:43.308Z,98724.20
2023-04-28T22:47:11.230Z,98724.60
2023-04-28T22:49:39.509Z,98724.27
2023-04-28T22:52:07.512Z,98717.66
2023-04-28T22:54:36.787Z,98712.09
2023-04-28T22:57:04.675Z,98711.40
2023-04-28T22:59:33.254Z,98707.80
2023-04-28T23:02:02.341Z,98710.11
2023-04-28T23:04:30.910Z,98708.88
2023-04-28T23:06:58.980Z,98708.14
2023-04-28T23:09:27.081Z,98710.16
2023-04-28T23:11:55.069Z,98710.32
2023-04-28T23:14:23.116Z,98708.83
2023-04-28T23:16:51.064Z,98706.69
2023-04-28T23:19:20.739Z,98700.05
2023-04-28T23:21:48.867Z,98698.38
2023-04-28T23:24:16.825Z,98699.84
2023-04-28T23:26:44.758Z,98700.02
2023-04-28T23:29:12.642Z,98694.31
2023-04-28T23:31:40.615Z,98690.83
2023-04-28T23:34:09.243Z,98687.21
2023-04-28T23:36:37.839Z,98683.38
2023-04-28T23:39:05.877Z,98677.55
2023-04-28T23:41:34.249Z,98674.91
2023-04-28T23:44:02.191Z,98672.86
2023-04-28T23:46:30.998Z,98664.15
2023-04-28T23:48:59.045Z,98666.64
2023-04-28T23:51:27.101Z,98664.09
2023-04-28T23:53:55.097Z,98658.25
2023-04-28T23:56:23.035Z,98657.54
2023-04-28T23:58:51.243Z,98651.69
